createdAt,value
2022-10-28T00:01:08.263Z,101324.3
2022-10-28T00:03:13.431Z,101331.41
2022-10-28T00:05:18.915Z,101331.96
2022-10-28T00:07:24.094Z,101327.8
2022-10-28T00:09:29.145Z,101329.72
2022-10-28T00:11:34.393Z,101326.14
2022-10-28T00:13:39.703Z,101331.78
2022-10-28T00:15:44.770Z,101327.83
2022-10-28T00:17:49.977Z,101327.47
2022-10-28T00:19:56.151Z,101324.34
2022-10-28T00:22:01.780Z,101327.23
2022-10-28T00:24:06.871Z,101331.48
2022-10-28T00:26:12.055Z,101325.32
2022-10-28T00:28:17.140Z,101329.34
2022-10-28T00:30:22.638Z,101324.59
2022-10-28T00:32:27.867Z,101322.66
2022-10-28T00:34:32.667Z,101319.64
2022-10-28T00:36:38.010Z,101314.16
2022-10-28T00:38:43.338Z,101313.23
2022-10-28T00:40:48.690Z,101312.72
2022-10-28T00:42:54.317Z,101308.19
2022-10-28T00:45:00.699Z,101307.5
2022-10-28T00:47:07.007Z,101304.23
2022-10-28T00:49:11.889Z,101303
2022-10-28T00:51:17.357Z,101302.97
2022-10-28T00:53:22.432Z,101298.14
2022-10-28T00:55:27.549Z,101296.78
2022-10-28T00:57:32.629Z,101296.29
2022-10-28T00:59:37.569Z,101296.35
2022-10-28T01:01:43.180Z,101303.02
2022-10-28T01:03:48.776Z,101299.37
2022-10-28T01:05:53.926Z,101299.55
2022-10-28T01:07:58.968Z,101298.07
2022-10-28T01:10:04.164Z,101301.06
2022-10-28T01:12:09.310Z,101302.86
2022-10-28T01:14:14.664Z,101301.33
2022-10-28T01:16:19.976Z,101295.97
2022-10-28T01:18:26.072Z,101294.45
2022-10-28T01:20:33.009Z,101296.63
2022-10-28T01:22:48.379Z,101299.05
2022-10-28T01:24:54.096Z,101298.58
2022-10-28T01:26:59.465Z,101295.89
2022-10-28T01:29:04.563Z,101290.61
2022-10-28T01:31:09.940Z,101290.28
2022-10-28T01:33:15.126Z,101285.51
2022-10-28T01:35:20.818Z,101286.63
2022-10-28T01:37:26.788Z,101283.49
2022-10-28T01:39:31.790Z,101283.74
2022-10-28T01:41:37.635Z,101285.98
2022-10-28T01:43:42.866Z,101284.47
2022-10-28T01:45:48.022Z,101283.39
2022-10-28T01:47:54.718Z,101280.84
2022-10-28T01:50:00.391Z,101283.65
2022-10-28T01:52:06.624Z,101283.93
2022-10-28T01:54:11.884Z,101286.24
2022-10-28T01:56:17.459Z,101282.09
2022-10-28T01:58:23.735Z,101279.25
2022-10-28T02:00:29.264Z,101278.3
2022-10-28T02:02:35.581Z,101281.52
2022-10-28T02:04:43.605Z,101285.16
2022-10-28T02:06:48.717Z,101278.11
2022-10-28T02:08:53.989Z,101284.34
2022-10-28T02:10:59.148Z,101278.81
2022-10-28T02:13:04.393Z,101278.64
2022-10-28T02:15:09.447Z,101272.17
2022-10-28T02:17:14.494Z,101265.73
2022-10-28T02:19:19.424Z,101265.48
2022-10-28T02:21:24.801Z,101263.67
2022-10-28T02:23:29.802Z,101260.05
2022-10-28T02:25:34.742Z,101257.06
2022-10-28T02:27:40.228Z,101256.98
2022-10-28T02:29:45.280Z,101259.38
2022-10-28T02:31:50.835Z,101257.06
2022-10-28T02:33:56.087Z,101258.22
2022-10-28T02:36:01.240Z,101259.09
2022-10-28T02:38:06.260Z,101257.24
2022-10-28T02:40:11.295Z,101258.02
2022-10-28T02:42:16.521Z,101261.81
2022-10-28T02:44:21.975Z,101256.73
2022-10-28T02:46:27.257Z,101257.56
2022-10-28T02:48:32.474Z,101257.23
2022-10-28T02:50:37.679Z,101251.66
2022-10-28T02:52:42.994Z,101251.07
2022-10-28T02:54:47.969Z,101249.45
2022-10-28T02:56:53.182Z,101242.81
2022-10-28T02:58:58.374Z,101240.45
2022-10-28T03:01:03.462Z,101240.56
2022-10-28T03:03:08.844Z,101229.59
2022-10-28T03:05:13.969Z,101231.05
2022-10-28T03:07:19.316Z,101226.72
2022-10-28T03:09:24.505Z,101220.72
2022-10-28T03:11:29.457Z,101220.45
2022-10-28T03:13:34.719Z,101216.44
2022-10-28T03:15:40.323Z,101216.33
2022-10-28T03:17:45.520Z,101219.23
2022-10-28T03:19:50.299Z,101216.7
2022-10-28T03:21:55.229Z,101224.41
2022-10-28T03:24:00.172Z,101221.52
2022-10-28T03:26:06.015Z,101225.5
2022-10-28T03:28:11.077Z,101226.11
2022-10-28T03:30:16.115Z,101228.2
2022-10-28T03:34:27.341Z,101233.48
2022-10-28T03:36:32.430Z,101233.16
2022-10-28T03:38:37.595Z,101229.61
2022-10-28T03:40:42.795Z,101228.72
2022-10-28T03:42:47.904Z,101220.41
2022-10-28T03:44:53.040Z,101218.69
2022-10-28T03:46:58.585Z,101217.27
2022-10-28T03:49:03.896Z,101208.63
2022-10-28T03:51:09.033Z,101208.59
2022-10-28T03:53:13.931Z,101206.42
2022-10-28T03:55:19.040Z,101204.11
2022-10-28T03:57:24.434Z,101202.61
2022-10-28T03:59:29.726Z,101204.03
2022-10-28T04:01:35.188Z,101200.52
2022-10-28T04:03:40.716Z,101202.42
2022-10-28T04:05:45.824Z,101209.45
2022-10-28T04:07:54.311Z,101204.88
2022-10-28T04:09:59.406Z,101200.92
2022-10-28T04:14:10.888Z,101203.05
2022-10-28T04:16:16.194Z,101203.25
2022-10-28T04:18:21.272Z,101209.45
2022-10-28T04:20:26.462Z,101203.42
2022-10-28T04:22:31.520Z,101197.77
2022-10-28T04:24:36.726Z,101198.48
2022-10-28T04:26:42.074Z,101199.02
2022-10-28T04:28:47.151Z,101199.05
2022-10-28T04:30:52.454Z,101199.3
2022-10-28T04:32:57.436Z,101194.2
2022-10-28T04:35:04.892Z,101196.98
2022-10-28T04:37:10.133Z,101198.93
2022-10-28T04:39:18.733Z,101200.22
2022-10-28T04:41:24.080Z,101198.91
2022-10-28T04:43:29.366Z,101199.08
2022-10-28T04:45:34.469Z,101201.23
2022-10-28T04:47:39.931Z,101204.87
2022-10-28T04:49:45.139Z,101201.02
2022-10-28T04:51:50.703Z,101198.95
2022-10-28T04:53:55.759Z,101192.97
2022-10-28T04:56:01.675Z,101195.28
2022-10-28T04:58:06.895Z,101194.13
2022-10-28T05:00:11.978Z,101195.27
2022-10-28T05:02:17.329Z,101192.97
2022-10-28T05:04:23.338Z,101190.81
2022-10-28T05:06:28.443Z,101193.89
2022-10-28T05:08:33.495Z,101193.91
2022-10-28T05:10:38.757Z,101194.59
2022-10-28T05:12:43.979Z,101191.98
2022-10-28T05:14:53.626Z,101190.59
2022-10-28T05:16:58.966Z,101187.74
2022-10-28T05:19:03.965Z,101185.21
2022-10-28T05:21:09.289Z,101183.49
2022-10-28T05:23:14.516Z,101179.25
2022-10-28T05:25:20.169Z,101171.9
2022-10-28T05:27:25.365Z,101168.06
2022-10-28T05:29:34.608Z,101172.06
2022-10-28T05:31:39.550Z,101171.59
2022-10-28T05:33:44.758Z,101165.86
2022-10-28T05:35:49.880Z,101162.65
2022-10-28T05:37:55.119Z,101167.06
2022-10-28T05:40:00.064Z,101161.22
2022-10-28T05:42:06.024Z,101159.3
2022-10-28T05:44:11.866Z,101153.93
2022-10-28T05:46:17.998Z,101159.41
2022-10-28T05:48:24.068Z,101158.64
2022-10-28T05:50:29.818Z,101160.19
2022-10-28T05:52:35.130Z,101163.72
2022-10-28T05:54:40.259Z,101163.23
2022-10-28T05:56:45.462Z,101166.55
2022-10-28T06:00:56.494Z,101162.41
2022-10-28T06:03:02.030Z,101164.17
2022-10-28T06:05:07.097Z,101167.17
2022-10-28T06:07:12.836Z,101164.74
2022-10-28T06:09:17.903Z,101160.23
2022-10-28T06:11:21.569Z,101161.17
2022-10-28T06:13:26.471Z,101158.52
2022-10-28T06:15:32.305Z,101157.44
2022-10-28T06:17:37.558Z,101153.16
2022-10-28T06:19:43.163Z,101153.47
2022-10-28T06:21:48.983Z,101147.88
2022-10-28T06:23:54.577Z,101149.96
2022-10-28T06:26:00.098Z,101152.16
2022-10-28T06:28:10.795Z,101153.17
2022-10-28T06:30:16.065Z,101150.64
2022-10-28T06:32:21.451Z,101150.52
2022-10-28T06:34:26.448Z,101149.31
2022-10-28T06:36:31.882Z,101156.02
2022-10-28T06:38:36.858Z,101154.13
2022-10-28T06:40:42.448Z,101155.73
2022-10-28T06:42:51.685Z,101153.19
2022-10-28T06:44:58.225Z,101157.81
2022-10-28T06:47:05.204Z,101162.34
2022-10-28T06:49:10.848Z,101163.99
2022-10-28T06:51:15.910Z,101164.52
2022-10-28T06:53:21.501Z,101161.36
2022-10-28T06:55:26.934Z,101163.09
2022-10-28T06:57:32.783Z,101162.88
2022-10-28T06:59:38.367Z,101163.42
2022-10-28T07:01:44.158Z,101166.13
2022-10-28T07:03:49.981Z,101168.08
2022-10-28T07:05:55.896Z,101168.52
2022-10-28T07:08:01.931Z,101175.28
2022-10-28T07:10:07.597Z,101176.31
2022-10-28T07:12:13.727Z,101172.3
2022-10-28T07:14:23.095Z,101168.73
2022-10-28T07:16:28.922Z,101170.11
2022-10-28T07:18:34.845Z,101171.48
2022-10-28T07:20:40.451Z,101171.07
2022-10-28T07:22:46.251Z,101171.56
2022-10-28T07:24:51.383Z,101169.34
2022-10-28T07:26:59.276Z,101167.87
2022-10-28T07:29:05.315Z,101171.94
2022-10-28T07:31:14.363Z,101174.33
2022-10-28T07:33:20.800Z,101175.17
2022-10-28T07:35:26.509Z,101171.06
2022-10-28T07:37:32.015Z,101174.17
2022-10-28T07:39:38.570Z,101174.18
2022-10-28T07:41:44.143Z,101172.84
2022-10-28T07:43:49.410Z,101168.45
2022-10-28T07:45:55.028Z,101162.63
2022-10-28T07:48:00.285Z,101162.27
2022-10-28T07:50:05.870Z,101160.31
2022-10-28T07:52:10.976Z,101152.64
2022-10-28T07:54:16.114Z,101150.13
2022-10-28T07:56:21.507Z,101149.26
2022-10-28T07:58:27.321Z,101147.73
2022-10-28T08:00:33.534Z,101145.83
2022-10-28T08:02:40.497Z,101140.61
2022-10-28T08:04:47.509Z,101137.67
2022-10-28T08:09:00.107Z,101140.34
2022-10-28T08:11:06.218Z,101136.42
2022-10-28T08:13:12.098Z,101136.13
2022-10-28T08:15:17.683Z,101133.16
2022-10-28T08:17:23.282Z,101126.75
2022-10-28T08:19:28.603Z,101124.23
2022-10-28T08:21:33.893Z,101122.41
2022-10-28T08:23:39.281Z,101120.61
2022-10-28T08:25:45.206Z,101115.3
2022-10-28T08:27:51.303Z,101117.58
2022-10-28T08:29:56.818Z,101120.44
2022-10-28T08:32:02.264Z,101115.45
2022-10-28T08:34:11.406Z,101117.96
2022-10-28T08:36:17.684Z,101114.92
2022-10-28T08:38:23.151Z,101117.58
2022-10-28T08:40:28.572Z,101122.56
2022-10-28T08:42:33.726Z,101122.64
2022-10-28T08:44:39.335Z,101119.15
2022-10-28T08:46:44.770Z,101111.09
2022-10-28T08:48:50.455Z,101110.31
2022-10-28T08:50:55.639Z,101107.8
2022-10-28T08:53:01.404Z,101104.53
2022-10-28T08:55:07.553Z,101096.45
2022-10-28T08:57:19.456Z,101091.89
2022-10-28T08:59:24.710Z,101083.08
2022-10-28T09:01:30.566Z,101083.46
2022-10-28T09:03:40.573Z,101081.17
2022-10-28T09:05:46.202Z,101072.81
2022-10-28T09:07:51.542Z,101074.2
2022-10-28T09:09:58.099Z,101071.11
2022-10-28T09:12:03.274Z,101074.58
2022-10-28T09:14:08.640Z,101074.98
2022-10-28T09:16:17.599Z,101072.67
2022-10-28T09:18:23.139Z,101072.14
2022-10-28T09:20:28.326Z,101072.69
2022-10-28T09:22:33.711Z,101071.65
2022-10-28T09:24:39.324Z,101077.42
2022-10-28T09:26:45.462Z,101080.04
2022-10-28T09:28:50.864Z,101077.2
2022-10-28T09:30:56.065Z,101077.42
2022-10-28T09:33:01.987Z,101081.58
2022-10-28T09:35:07.132Z,101082.11
2022-10-28T09:37:12.689Z,101080.3
2022-10-28T09:39:18.292Z,101075.11
2022-10-28T09:41:30.916Z,101084.05
2022-10-28T09:43:36.205Z,101082.29
2022-10-28T09:45:41.655Z,101078.7
2022-10-28T09:47:47.140Z,101082.46
2022-10-28T09:49:52.838Z,101081.38
2022-10-28T09:52:00.780Z,101076.45
2022-10-28T09:54:06.333Z,101070.06
2022-10-28T09:56:12.118Z,101071.91
2022-10-28T09:58:17.988Z,101071.59
2022-10-28T10:00:23.986Z,101070.71
2022-10-28T10:02:29.453Z,101067.88
2022-10-28T10:04:34.857Z,101065.91
2022-10-28T10:06:40.228Z,101068.88
2022-10-28T10:08:45.491Z,101071.68
2022-10-28T10:10:50.802Z,101062.44
2022-10-28T10:12:57.188Z,101067.88
2022-10-28T10:15:03.816Z,101059.59
2022-10-28T10:17:09.690Z,101050.94
2022-10-28T10:19:15.504Z,101049.86
2022-10-28T10:21:21.581Z,101048.02
2022-10-28T10:23:30.052Z,101045.59
2022-10-28T10:25:35.976Z,101042.86
2022-10-28T10:27:41.514Z,101042.27
2022-10-28T10:29:47.321Z,101042.05
2022-10-28T10:31:52.681Z,101044.48
2022-10-28T10:33:57.901Z,101040.3
2022-10-28T10:36:03.197Z,101036.16
2022-10-28T10:38:08.610Z,101034.96
2022-10-28T10:40:15.089Z,101038.16
2022-10-28T10:42:20.860Z,101036.97
2022-10-28T10:44:26.241Z,101040.52
2022-10-28T10:46:31.639Z,101028.81
2022-10-28T10:48:37.023Z,101032.8
2022-10-28T10:50:43.153Z,101032.2
2022-10-28T10:52:49.211Z,101034.59
2022-10-28T10:54:55.250Z,101030.9
2022-10-28T10:57:00.920Z,101028.61
2022-10-28T10:59:06.378Z,101037.77
2022-10-28T11:01:11.883Z,101027.13
2022-10-28T11:03:17.462Z,101028.13
2022-10-28T11:05:31.919Z,101025.62
2022-10-28T11:07:42.953Z,101018.86
2022-10-28T11:09:48.244Z,101019.96
2022-10-28T11:11:53.418Z,101020.4
2022-10-28T11:13:59.297Z,101013.45
2022-10-28T11:16:04.868Z,101013.79
2022-10-28T11:18:10.326Z,101014.31
2022-10-28T11:20:16.270Z,101005.56
2022-10-28T11:22:21.474Z,101006.28
2022-10-28T11:24:26.800Z,101003.19
2022-10-28T11:26:32.326Z,101002.42
2022-10-28T11:28:37.961Z,101000.64
2022-10-28T11:30:43.478Z,100998.69
2022-10-28T11:33:24.610Z,100993.69
2022-10-28T11:35:36.422Z,100986.09
2022-10-28T11:37:41.862Z,100980.92
2022-10-28T11:39:47.171Z,100980.38
2022-10-28T11:41:52.797Z,100980.38
2022-10-28T11:44:05.375Z,100974.86
2022-10-28T11:46:10.921Z,100975.89
2022-10-28T11:48:16.475Z,100978.98
2022-10-28T11:50:22.283Z,100977.91
2022-10-28T11:52:28.460Z,100976.56
2022-10-28T11:54:33.959Z,100976.69
2022-10-28T11:56:39.311Z,100966.24
2022-10-28T11:58:45.082Z,100965.94
2022-10-28T12:00:50.703Z,100966.86
2022-10-28T12:02:57.984Z,100967.67
2022-10-28T12:05:04.897Z,100966.05
2022-10-28T12:07:11.734Z,100966.17
2022-10-28T12:09:17.884Z,100966.56
2022-10-28T12:11:24.129Z,100969.05
2022-10-28T12:13:29.525Z,100969.49
2022-10-28T12:15:35.394Z,100968.53
2022-10-28T12:17:42.948Z,100967.22
2022-10-28T12:19:48.848Z,100964.36
2022-10-28T12:21:55.007Z,100964.71
2022-10-28T12:24:00.717Z,100960.7
2022-10-28T12:26:07.617Z,100963.83
2022-10-28T12:30:23.462Z,100958.42
2022-10-28T12:32:30.262Z,100956.38
2022-10-28T12:36:43.294Z,100951.1
2022-10-28T12:38:50.182Z,100949.11
2022-10-28T12:40:56.851Z,100951.65
2022-10-28T12:43:05.857Z,100951.42
2022-10-28T12:45:11.754Z,100952.56
2022-10-28T12:47:17.539Z,100953.84
2022-10-28T12:49:23.918Z,100946.27
2022-10-28T12:51:30.259Z,100948.02
2022-10-28T12:53:36.530Z,100943.33
2022-10-28T12:55:42.946Z,100940.66
2022-10-28T12:57:49.369Z,100935.25
2022-10-28T12:59:55.998Z,100933.66
2022-10-28T13:02:04.842Z,100932.08
2022-10-28T13:04:12.119Z,100927.77
2022-10-28T13:06:19.514Z,100928.53
2022-10-28T13:08:26.043Z,100924.34
2022-10-28T13:10:32.667Z,100930.61
2022-10-28T13:12:40.776Z,100929.27
2022-10-28T13:14:48.252Z,100927.98
2022-10-28T13:16:55.213Z,100929.55
2022-10-28T13:19:02.489Z,100923.77
2022-10-28T13:21:09.080Z,100918.33
2022-10-28T13:23:15.968Z,100916.19
2022-10-28T13:25:21.793Z,100916.12
2022-10-28T13:27:28.008Z,100917.11
2022-10-28T13:29:34.599Z,100916.06
2022-10-28T13:31:41.128Z,100921.2
2022-10-28T13:33:47.750Z,100917.33
2022-10-28T13:38:01.069Z,100924.3
2022-10-28T13:40:07.487Z,100924.97
2022-10-28T13:42:13.686Z,100923.25
2022-10-28T13:44:20.321Z,100919.19
2022-10-28T13:46:42.938Z,100922.41
2022-10-28T13:48:48.922Z,100925.44
2022-10-28T13:50:54.681Z,100932.2
2022-10-28T13:53:00.969Z,100934.08
2022-10-28T13:55:09.750Z,100932.78
2022-10-28T13:57:16.403Z,100935.78
2022-10-28T13:59:23.434Z,100941.09
2022-10-28T14:01:30.411Z,100940.06
2022-10-28T14:03:37.707Z,100942.33
2022-10-28T14:05:45.229Z,100941.94
2022-10-28T14:07:52.637Z,100942.2
2022-10-28T14:10:00.226Z,100944.67
2022-10-28T14:12:06.324Z,100946.95
2022-10-28T14:14:13.169Z,100949.83
2022-10-28T14:16:19.627Z,100957.25
2022-10-28T14:18:47.140Z,100967.88
2022-10-28T14:20:53.976Z,100983.19
2022-10-28T14:23:21.684Z,100984.39
2022-10-28T14:25:31.648Z,100994.84
2022-10-28T14:27:38.475Z,100999.56
2022-10-28T14:29:45.568Z,100996.71
2022-10-28T14:31:51.844Z,100996.46
2022-10-28T14:34:01.449Z,100996.17
2022-10-28T14:36:08.049Z,100998.13
2022-10-28T14:38:17.621Z,100995.89
2022-10-28T14:40:24.666Z,100994.05
2022-10-28T14:42:44.998Z,100995.91
2022-10-28T14:44:52.864Z,100990.52
2022-10-28T14:47:03.686Z,100987.03
2022-10-28T14:49:15.355Z,100982.2
2022-10-28T14:51:21.476Z,100975.36
2022-10-28T14:53:48.187Z,100968.67
2022-10-28T14:55:53.784Z,100968.81
2022-10-28T14:58:22.961Z,100968.05
2022-10-28T15:00:30.183Z,100964.97
2022-10-28T15:02:57.420Z,100966.69
2022-10-28T15:05:03.830Z,100957.92
2022-10-28T15:07:10.082Z,100956.97
2022-10-28T15:12:05.496Z,100949.19
2022-10-28T15:14:21.295Z,100944.23
2022-10-28T15:16:29.245Z,100937.59
2022-10-28T15:18:42.021Z,100933.87
2022-10-28T15:23:57.727Z,100931.42
2022-10-28T15:26:09.191Z,100932.62
2022-10-28T15:28:16.261Z,100925.88
2022-10-28T15:30:22.826Z,100925.28
2022-10-28T15:32:29.548Z,100914.69
2022-10-28T15:34:36.564Z,100911.87
2022-10-28T15:36:43.805Z,100910.41
2022-10-28T15:39:12.551Z,100906.02
2022-10-28T15:41:20.830Z,100909.97
2022-10-28T15:43:30.008Z,100908.66
2022-10-28T15:45:44.301Z,100903.3
2022-10-28T15:47:57.096Z,100897.11
2022-10-28T15:50:05.519Z,100895.25
2022-10-28T15:52:17.083Z,100887.56
2022-10-28T15:54:24.797Z,100881.44
2022-10-28T15:56:32.643Z,100881.5
2022-10-28T15:58:44.236Z,100876.83
2022-10-28T16:00:54.082Z,100878.28
2022-10-28T16:03:25.799Z,100871.84
2022-10-28T16:05:35.017Z,100871.53
2022-10-28T16:07:42.987Z,100872.72
2022-10-28T16:09:49.952Z,100872.34
2022-10-28T16:12:03.788Z,100869.84
2022-10-28T16:14:35.711Z,100868.2
2022-10-28T16:16:42.952Z,100871.27
2022-10-28T16:18:51.170Z,100864.97
2022-10-28T16:21:03.800Z,100863.05
2022-10-28T16:23:10.838Z,100863.44
2022-10-28T16:25:21.279Z,100861.52
2022-10-28T16:27:34.436Z,100862.06
2022-10-28T16:29:44.396Z,100858.03
2022-10-28T16:31:52.429Z,100862.3
2022-10-28T16:34:00.062Z,100864.67
2022-10-28T16:36:13.928Z,100858.58
2022-10-28T16:38:21.473Z,100856.66
2022-10-28T16:40:53.359Z,100850.72
2022-10-28T16:43:01.719Z,100854.78
2022-10-28T16:45:10.649Z,100857.38
2022-10-28T16:47:20.703Z,100855.95
2022-10-28T16:49:56.059Z,100853.24
2022-10-28T16:52:07.279Z,100849.05
2022-10-28T16:54:19.044Z,100847.74
2022-10-28T16:56:34.941Z,100847.91
2022-10-28T16:58:45.104Z,100851.53
2022-10-28T17:00:53.307Z,100847.15
2022-10-28T17:03:00.866Z,100844.66
2022-10-28T17:05:12.087Z,100847.81
2022-10-28T17:07:19.726Z,100851.47
2022-10-28T17:09:28.346Z,100856.81
2022-10-28T17:11:40.316Z,100860.92
2022-10-28T17:13:51.244Z,100854.11
2022-10-28T17:16:19.827Z,100850.1
2022-10-28T17:18:38.318Z,100846.38
2022-10-28T17:20:52.258Z,100847.36
2022-10-28T17:23:01.157Z,100846.88
2022-10-28T17:25:08.246Z,100849.61
2022-10-28T17:27:18.788Z,100854.91
2022-10-28T17:29:34.154Z,100854.88
2022-10-28T17:31:44.383Z,100858.19
2022-10-28T17:33:57.785Z,100866.94
2022-10-28T17:36:08.081Z,100872.5
2022-10-28T17:38:14.831Z,100868.65
2022-10-28T17:40:26.381Z,100870.31
2022-10-28T17:42:33.128Z,100861.32
2022-10-28T17:44:43.906Z,100854.69
2022-10-28T17:46:55.368Z,100851.9
2022-10-28T17:49:23.678Z,100854.27
2022-10-28T17:51:36.788Z,100852.64
2022-10-28T17:53:51.221Z,100856.25
2022-10-28T17:56:00.571Z,100857.36
2022-10-28T17:58:17.990Z,100849.78
2022-10-28T18:00:25.203Z,100854.45
2022-10-28T18:02:35.335Z,100863.31
2022-10-28T18:04:55.925Z,100857
2022-10-28T18:07:04.516Z,100854.33
2022-10-28T18:09:28.672Z,100855.38
2022-10-28T18:11:43.088Z,100867.71
2022-10-28T18:13:52.647Z,100867.45
2022-10-28T18:16:05.659Z,100863.28
2022-10-28T18:18:14.306Z,100854.73
2022-10-28T18:20:45.285Z,100856.63
2022-10-28T18:23:17.634Z,100851.34
2022-10-28T18:25:26.971Z,100851.3
2022-10-28T18:27:38.879Z,100848.22
2022-10-28T18:29:46.638Z,100860.71
2022-10-28T18:31:55.379Z,100851.88
2022-10-28T18:34:07.146Z,100853.53
2022-10-28T18:36:18.120Z,100844.28
2022-10-28T18:38:36.326Z,100839.19
2022-10-28T18:40:48.086Z,100835.88
2022-10-28T18:43:18.465Z,100833.88
2022-10-28T18:45:29.109Z,100827.58
2022-10-28T18:47:39.353Z,100821.64
2022-10-28T18:49:49.086Z,100814.89
2022-10-28T18:52:10.671Z,100817.3
2022-10-28T18:54:22.544Z,100826.05
2022-10-28T18:56:39.823Z,100825.44
2022-10-28T18:59:04.049Z,100813.78
2022-10-28T19:01:21.660Z,100816.69
2022-10-28T19:03:31.801Z,100815.13
2022-10-28T19:05:42.435Z,100817.11
2022-10-28T19:07:57.230Z,100819.83
2022-10-28T19:10:29.953Z,100822.53
2022-10-28T19:12:59.597Z,100815.08
2022-10-28T19:15:09.942Z,100813.92
2022-10-28T19:17:32.888Z,100809.52
2022-10-28T19:19:42.725Z,100813.5
2022-10-28T19:21:54.970Z,100819.73
2022-10-28T19:24:06.895Z,100818.98
2022-10-28T19:26:40.689Z,100820.64
2022-10-28T19:28:48.309Z,100818.24
2022-10-28T19:30:58.349Z,100805.25
2022-10-28T19:33:13.368Z,100796.41
2022-10-28T19:35:32.766Z,100795.86
2022-10-28T19:37:47.839Z,100793.55
2022-10-28T19:39:59.630Z,100791.39
2022-10-28T19:42:07.995Z,100795.11
2022-10-28T19:44:15.582Z,100795.56
2022-10-28T19:46:27.499Z,100796.5
2022-10-28T19:48:40.026Z,100793.88
2022-10-28T19:50:49.561Z,100789.34
2022-10-28T19:59:07.053Z,100795.31
2022-10-28T20:01:15.942Z,100800.91
2022-10-28T20:03:28.766Z,100801.86
2022-10-28T20:05:49.847Z,100803.19
2022-10-28T20:08:22.243Z,100803.72
2022-10-28T20:10:34.117Z,100807.34
2022-10-28T20:12:45.054Z,100805.31
2022-10-28T20:14:59.188Z,100807.91
2022-10-28T20:17:09.189Z,100807.41
2022-10-28T20:19:19.432Z,100808.44
2022-10-28T20:21:28.171Z,100803.31
2022-10-28T20:23:59.414Z,100793.97
2022-10-28T20:26:10.513Z,100793.72
2022-10-28T20:28:24.409Z,100789.77
2022-10-28T20:30:31.868Z,100782.3
2022-10-28T20:32:38.807Z,100786.7
2022-10-28T20:34:50.355Z,100794.47
2022-10-28T20:37:00.516Z,100797.8
2022-10-28T20:39:08.397Z,100796.02
2022-10-28T20:41:16.706Z,100810.91
2022-10-28T20:43:26.118Z,100811.15
2022-10-28T20:45:33.075Z,100812.91
2022-10-28T20:47:40.548Z,100810.08
2022-10-28T20:50:08.332Z,100806.16
2022-10-28T20:52:19.365Z,100803.63
2022-10-28T20:54:34.300Z,100803.08
2022-10-28T20:56:42.503Z,100807.93
2022-10-28T20:58:49.686Z,100802.44
2022-10-28T21:01:14.055Z,100800.84
2022-10-28T21:03:26.438Z,100802.28
2022-10-28T21:05:33.437Z,100805.17
2022-10-28T21:08:00.803Z,100802.55
2022-10-28T21:10:21.240Z,100799.76
2022-10-28T21:12:31.304Z,100792.7
2022-10-28T21:14:52.971Z,100790.77
2022-10-28T21:16:59.749Z,100790.03
2022-10-28T21:19:08.371Z,100790.3
2022-10-28T21:21:36.691Z,100785.1
2022-10-28T21:23:43.483Z,100786.92
2022-10-28T21:25:53.208Z,100792.84
2022-10-28T21:27:59.216Z,100794.87
2022-10-28T21:30:10.219Z,100796.58
2022-10-28T21:32:31.184Z,100795.89
2022-10-28T21:34:37.022Z,100792.44
2022-10-28T21:36:59.832Z,100791.36
2022-10-28T21:39:07.429Z,100792.36
2022-10-28T21:41:16.086Z,100787.84
2022-10-28T21:43:43.122Z,100793.09
2022-10-28T21:45:52.495Z,100790.28
2022-10-28T21:48:00.610Z,100787.02
2022-10-28T21:50:20.671Z,100784.53
2022-10-28T21:52:28.681Z,100778.06
2022-10-28T21:54:34.548Z,100775.06
2022-10-28T21:56:40.722Z,100771.34
2022-10-28T21:58:46.568Z,100773.81
2022-10-28T22:00:52.646Z,100768.23
2022-10-28T22:02:58.563Z,100764.11
2022-10-28T22:05:09.194Z,100761.17
2022-10-28T22:07:30.122Z,100758.55
2022-10-28T22:09:40.175Z,100747.04
2022-10-28T22:11:49.146Z,100757.97
2022-10-28T22:13:55.061Z,100753.1
2022-10-28T22:16:00.583Z,100755.58
2022-10-28T22:18:06.581Z,100752.53
2022-10-28T22:20:12.267Z,100747.12
2022-10-28T22:22:23.647Z,100744.55
2022-10-28T22:24:44.118Z,100738.61
2022-10-28T22:26:50.324Z,100740.38
2022-10-28T22:28:59.469Z,100737.59
2022-10-28T22:34:12.744Z,100733.84
2022-10-28T22:36:21.366Z,100731.63
2022-10-28T22:38:27.217Z,100723.38
2022-10-28T22:40:33.647Z,100724.44
2022-10-28T22:42:39.455Z,100724
2022-10-28T22:45:06.372Z,100722.92
2022-10-28T22:47:12.181Z,100714.75
2022-10-28T22:49:22.640Z,100713.94
2022-10-28T22:51:33.357Z,100708.28
2022-10-28T22:53:42.760Z,100715.14
2022-10-28T22:55:48.307Z,100714.36
2022-10-28T22:57:54.625Z,100709.66
2022-10-28T23:00:05.402Z,100706.02
2022-10-28T23:02:13.590Z,100705.88
2022-10-28T23:04:36.727Z,100701.13
2022-10-28T23:07:03.477Z,100699.83
2022-10-28T23:09:09.538Z,100697.19
2022-10-28T23:11:15.298Z,100687.77
2022-10-28T23:13:20.869Z,100686.84
2022-10-28T23:15:29.748Z,100684.98
2022-10-28T23:17:39.849Z,100685.47
2022-10-28T23:19:45.757Z,100687.31
2022-10-28T23:21:51.267Z,100689.28
2022-10-28T23:23:57.072Z,100680.25
2022-10-28T23:26:17.208Z,100679.2
2022-10-28T23:28:24.941Z,100673.09
2022-10-28T23:30:32.763Z,100676.96
2022-10-28T23:32:40.177Z,100675.91
2022-10-28T23:34:45.964Z,100671.76
2022-10-28T23:36:51.579Z,100669.49
2022-10-28T23:38:57.311Z,100667.45
2022-10-28T23:43:51.943Z,100661.45
2022-10-28T23:46:02.687Z,100661.53
2022-10-28T23:48:10.113Z,100658.3
2022-10-28T23:50:22.059Z,100656.34
2022-10-28T23:52:27.495Z,100658.75
2022-10-28T23:54:34.413Z,100653.98
2022-10-28T23:56:54.568Z,100652.84
2022-10-28T23:59:02.026Z,100654.14
